Share

Jaipur, India

Jaipur (VIJP) Elev 1280 ft | 26.82 °N, 75.81 °E | Change Station

Current weather conditions updated 34 minutes ago

Haze
Haze
75 °F
Feels Like 75 °F
N
0
Wind Variable Wind from North
Sunrise 5:58 AM
Sunset 6:53 PM
Moon Waning Gibbous

Today is forecast to be Warmer than yesterday.

Pressure 29.92 in
Visibility 1.9 miles
Clouds Scattered Clouds 10000 ft
Dew Point 61 °F
Humidity 61%
Rainfall 0.00 in
Snow Depth Not available.
UV 0 out of 16
Pollen Not available.
Air Quality Not available.
Flu Activity Not available.
METAR VIJP 191830Z 00000KT 3000 HZ SCT100 24/16 Q1013 NOSIG

More Conditions Fewer Conditions

Pressure 29.92 in
Visibility 1.9 miles
Clouds Scattered Clouds 10000 ft
Dew Point 61 °F
Humidity 61%
Rainfall 0.00 in
Snow Depth Not available.
UV 0 out of 16
Pollen Not available.
Air Quality Not available.
Flu Activity Not available.
METAR VIJP 191830Z 00000KT 3000 HZ SCT100 24/16 Q1013 NOSIG

More Conditions Fewer Conditions

10-Day Weather Forecast

Almanac

Astronomy

Apr. 20, 2014 Rise Set
Actual Time 5:58 AM IST 6:53 PM IST
Civil Twilight 5:34 AM IST 7:17 PM IST
Nautical Twilight 5:06 AM IST 7:45 PM IST
Astronomical Twilight 4:37 AM IST 8:14 PM IST
Moon 11:51 PM IST (4/20) 10:01 AM IST (4/20)
Length of Visible Light 13h 42m
Length of Day
12h 54m
Tomorrow will be 1m 28s longer.
Waning Gibbous, 77% of the Moon is Illuminated
Apr 19
Waning Gibbous
Apr 22
Last Quarter
Apr 29
New
May 6
First Quarter
May 14
Full

Yesterday's Extremes

Country Highs Country Lows

Community

  • Piriapolis
    Piriapolis
  • A Glorious Morning
    A Glorious Morning
  • Tender Rays Of Hope
    Tender Rays Of Hope
  • Bleeding Hearts
    Bleeding Hearts
  • Sunset Silhouettes
    Sunset Silhouettes

WunderPhotos

Upload Photos

1,702,845 photos uploaded!

WunderBlogs® & News

Nearby

Snow Depth

Not available.

Coastal Water Temperatures

Place Temperature
No Stations Reporting

Earthquake Activity

City Distance Mag. Time & Date
No recent earthquake activity has been reported nearby.
Minimum magnitude displayed is 2.5.

Nearby Weather Stations

There are no personal weather stations in this area.

What do you think?

We're not finished. Please let us know what you like, what you don't like, and what you are still missing.